Time;durP1;ratioP1;P1;durP2;ratioP2;P2;SDS_P1;SDS_P2;PMS_P1;PMS_P2;Temp;Humidity;BMP_temperature;BMP_pressure;BME280_temperature;BME280_humidity;BME280_pressure;Samples;Min_cycle;Max_cycle;Signal;HPM_P1;HPM_P2
2021/08/16 00:00:49;;;;;;;;;;;;;;;21.18;72.02;100652.22;461509;113;922727;-67
2021/08/16 00:01:53;;;;;;;;;;;;;;;21.18;72.05;100662.47;461595;113;922631;-66
2021/08/16 00:02:56;;;;;;;;;;;;;;;21.17;72.03;100658.06;461296;113;922539;-66
2021/08/16 00:04:00;;;;;;;;;;;;;;;21.17;72.08;100656.09;461672;113;922688;-66
2021/08/16 00:05:04;;;;;;;;;;;;;;;21.16;72.04;100653.63;461514;113;922681;-66
2021/08/16 00:06:07;;;;;;;;;;;;;;;21.16;72.05;100659.17;461604;111;922700;-66
2021/08/16 00:07:11;;;;;;;;;;;;;;;21.15;72.07;100652.80;461050;113;923020;-66
2021/08/16 00:08:14;;;;;;;;;;;;;;;21.13;72.09;100649.44;461523;113;922936;-66
2021/08/16 00:09:18;;;;;;;;;;;;;;;21.11;72.05;100651.68;461240;113;922717;-66
2021/08/16 00:10:22;;;;;;;;;;;;;;;21.09;72.10;100650.28;461215;113;923555;-66
2021/08/16 00:11:25;;;;;;;;;;;;;;;21.05;72.15;100658.35;461846;113;922746;-67
2021/08/16 00:12:28;;;;;;;;;;;;;;;21.01;72.25;100651.69;462093;113;921574;-66
2021/08/16 00:13:32;;;;;;;;;;;;;;;20.97;72.35;100650.59;461929;113;921432;-66
2021/08/16 00:14:35;;;;;;;;;;;;;;;20.92;72.37;100653.39;461919;113;921670;-66
2021/08/16 00:15:39;;;;;;;;;;;;;;;20.89;72.50;100653.97;462136;113;921452;-66
2021/08/16 00:16:43;;;;;;;;;;;;;;;20.86;72.63;100650.91;462231;113;921412;-66
2021/08/16 00:17:46;;;;;;;;;;;;;;;20.84;72.76;100647.60;462507;113;921479;-67
2021/08/16 00:18:50;;;;;;;;;;;;;;;20.81;72.88;100654.52;461645;113;921376;-67
2021/08/16 00:19:53;;;;;;;;;;;;;;;20.79;72.94;100653.96;461230;113;921705;-67
2021/08/16 00:20:57;;;;;;;;;;;;;;;20.78;73.01;100655.09;462415;111;921487;-67
2021/08/16 00:22:00;;;;;;;;;;;;;;;20.76;73.07;100649.83;461906;113;921404;-67
2021/08/16 00:23:03;;;;;;;;;;;;;;;20.75;73.14;100644.56;461504;113;921527;-67
2021/08/16 00:24:07;;;;;;;;;;;;;;;20.74;73.25;100652.03;461281;113;921509;-67
2021/08/16 00:25:10;;;;;;;;;;;;;;;20.73;73.25;100646.80;461260;113;921478;-66
2021/08/16 00:26:13;;;;;;;;;;;;;;;20.73;73.29;100650.37;460926;113;921574;-67
2021/08/16 00:27:17;;;;;;;;;;;;;;;20.74;73.35;100648.44;461973;113;921535;-67
2021/08/16 00:28:20;;;;;;;;;;;;;;;20.74;73.39;100640.95;461562;113;921600;-67
2021/08/16 00:29:24;;;;;;;;;;;;;;;20.76;73.42;100649.83;461594;113;922646;-67
2021/08/16 00:30:29;;;;;;;;;;;;;;;20.78;73.42;100646.78;461956;113;921467;-67
2021/08/16 00:31:32;;;;;;;;;;;;;;;20.78;73.38;100657.87;462521;113;922666;-67
2021/08/16 00:32:36;;;;;;;;;;;;;;;20.78;73.26;100641.24;461484;113;923192;-67
2021/08/16 00:33:40;;;;;;;;;;;;;;;20.76;73.28;100643.45;461520;113;922680;-65
2021/08/16 00:34:43;;;;;;;;;;;;;;;20.76;73.23;100648.99;461081;108;921817;-67
2021/08/16 00:35:46;;;;;;;;;;;;;;;20.74;73.24;100643.72;457124;114;922689;-66
2021/08/16 00:36:50;;;;;;;;;;;;;;;20.71;73.30;100640.70;456901;114;923128;-67
2021/08/16 00:37:53;;;;;;;;;;;;;;;20.71;73.27;100638.76;456851;114;923118;-67
2021/08/16 00:38:58;;;;;;;;;;;;;;;20.71;73.38;100640.70;441183;117;922721;-68
2021/08/16 00:40:01;;;;;;;;;;;;;;;20.72;73.47;100642.36;456357;114;922671;-67
2021/08/16 00:41:04;;;;;;;;;;;;;;;20.74;73.47;100642.89;456221;115;923625;-68
2021/08/16 00:42:09;;;;;;;;;;;;;;;20.76;73.49;100649.83;457171;115;922908;-67
2021/08/16 00:43:12;;;;;;;;;;;;;;;20.77;73.40;100642.34;456582;115;922677;-68
2021/08/16 00:44:16;;;;;;;;;;;;;;;20.79;73.32;100643.71;457516;114;925024;-67
2021/08/16 00:45:19;;;;;;;;;;;;;;;20.81;73.26;100647.05;456082;115;922688;-66
2021/08/16 00:46:23;;;;;;;;;;;;;;;20.82;73.15;100642.33;457136;115;922700;-66
2021/08/16 00:47:26;;;;;;;;;;;;;;;20.85;73.02;100629.84;456781;115;922723;-67
2021/08/16 00:48:30;;;;;;;;;;;;;;;20.86;73.00;100632.34;456904;114;922754;-67
2021/08/16 00:49:33;;;;;;;;;;;;;;;20.87;72.90;100642.31;456497;112;922647;-66
2021/08/16 00:50:37;;;;;;;;;;;;;;;20.88;72.82;100637.61;456507;115;922790;-67
2021/08/16 00:51:40;;;;;;;;;;;;;;;20.88;72.78;100635.67;456724;115;924355;-67
2021/08/16 00:52:44;;;;;;;;;;;;;;;20.89;72.76;100639.27;456994;114;922605;-65
2021/08/16 00:53:47;;;;;;;;;;;;;;;20.90;72.69;100638.97;456624;115;922710;-67
2021/08/16 00:54:51;;;;;;;;;;;;;;;20.89;72.60;100637.33;456666;115;922687;-70
2021/08/16 00:55:55;;;;;;;;;;;;;;;20.89;72.56;100639.27;456078;115;923251;-70
2021/08/16 00:56:59;;;;;;;;;;;;;;;20.89;72.49;100633.73;457054;114;922682;-68
2021/08/16 00:58:02;;;;;;;;;;;;;;;20.88;72.50;100637.61;457770;115;922648;-68
2021/08/16 00:59:07;;;;;;;;;;;;;;;20.86;72.49;100637.88;456921;115;922661;-68
2021/08/16 01:00:11;;;;;;;;;;;;;;;20.84;72.50;100640.09;457739;114;923256;-68
2021/08/16 01:01:14;;;;;;;;;;;;;;;20.82;72.53;100631.25;456537;115;922542;-68
2021/08/16 01:02:18;;;;;;;;;;;;;;;20.80;72.60;100639.83;458047;115;921448;-67
2021/08/16 01:03:21;;;;;;;;;;;;;;;20.81;72.54;100637.89;457126;115;922624;-69
2021/08/16 01:04:25;;;;;;;;;;;;;;;20.79;72.55;100637.33;456947;112;922744;-69
2021/08/16 01:05:28;;;;;;;;;;;;;;;20.78;72.57;100641.24;457049;115;921550;-66
2021/08/16 01:06:31;;;;;;;;;;;;;;;20.75;72.62;100642.62;457536;114;921414;-65
2021/08/16 01:07:34;;;;;;;;;;;;;;;20.74;72.67;100637.35;457783;115;921613;-66
2021/08/16 01:08:38;;;;;;;;;;;;;;;20.72;72.73;100642.36;456492;115;921346;-65
2021/08/16 01:09:41;;;;;;;;;;;;;;;20.68;72.70;100642.07;456625;114;921744;-64
2021/08/16 01:10:44;;;;;;;;;;;;;;;20.66;72.75;100637.94;456439;115;921384;-66
2021/08/16 01:11:48;;;;;;;;;;;;;;;20.63;72.83;100647.63;457010;115;921491;-65
2021/08/16 01:12:51;;;;;;;;;;;;;;;20.61;72.92;100649.86;456596;114;921416;-66
2021/08/16 01:13:54;;;;;;;;;;;;;;;20.61;72.96;100646.26;456979;114;921526;-66
2021/08/16 01:14:57;;;;;;;;;;;;;;;20.61;72.98;100646.26;456761;115;921715;-66
2021/08/16 01:16:02;;;;;;;;;;;;;;;20.60;73.01;100642.66;457400;115;921438;-66
2021/08/16 01:17:07;;;;;;;;;;;;;;;20.61;72.98;100646.26;457276;115;922654;-67
2021/08/16 01:18:10;;;;;;;;;;;;;;;20.60;72.97;100647.36;457567;114;922400;-65
2021/08/16 01:19:15;;;;;;;;;;;;;;;20.59;72.98;100654.01;456762;115;922517;-65
2021/08/16 01:20:19;;;;;;;;;;;;;;;20.58;72.92;100653.17;456775;115;921502;-65
2021/08/16 01:21:22;;;;;;;;;;;;;;;20.56;72.92;100649.88;457504;115;923198;-68
2021/08/16 01:22:26;;;;;;;;;;;;;;;20.53;72.91;100650.41;457992;114;921475;-69
2021/08/16 01:23:29;;;;;;;;;;;;;;;20.51;72.97;100651.82;456865;115;922607;-65
2021/08/16 01:24:33;;;;;;;;;;;;;;;20.50;73.06;100655.69;456452;115;923196;-66
2021/08/16 01:25:36;;;;;;;;;;;;;;;20.50;73.17;100655.69;456419;114;923181;-69
2021/08/16 01:26:40;;;;;;;;;;;;;;;20.48;73.19;100653.20;456906;114;922649;-68
2021/08/16 01:27:43;;;;;;;;;;;;;;;20.49;73.18;100654.03;457067;115;922653;-66
2021/08/16 01:28:46;;;;;;;;;;;;;;;20.48;73.15;100650.42;457507;115;923208;-66
2021/08/16 01:29:50;;;;;;;;;;;;;;;20.47;73.18;100651.53;457170;115;921423;-66
2021/08/16 01:30:55;;;;;;;;;;;;;;;20.46;73.11;100657.34;457030;114;922637;-65
2021/08/16 01:31:59;;;;;;;;;;;;;;;20.46;73.25;100660.11;455029;115;922711;-63
2021/08/16 01:33:03;;;;;;;;;;;;;;;20.46;73.25;100654.56;455526;115;923115;-64
2021/08/16 01:34:06;;;;;;;;;;;;;;;20.47;73.26;100656.23;459205;113;922692;-64
2021/08/16 01:35:11;;;;;;;;;;;;;;;20.48;73.31;100661.50;459043;114;923277;-64
2021/08/16 01:36:14;;;;;;;;;;;;;;;20.49;73.22;100659.56;460218;113;922712;-63
2021/08/16 01:37:18;;;;;;;;;;;;;;;20.49;73.14;100662.34;460541;114;922683;-65
2021/08/16 01:38:22;;;;;;;;;;;;;;;20.50;73.12;100652.92;460889;113;922639;-65
2021/08/16 01:39:26;;;;;;;;;;;;;;;20.50;73.04;100648.22;460142;113;922888;-66
2021/08/16 01:40:30;;;;;;;;;;;;;;;20.51;73.02;100649.05;459883;114;922735;-66
2021/08/16 01:41:34;;;;;;;;;;;;;;;20.51;73.00;100652.62;460712;114;922637;-66
2021/08/16 01:42:37;;;;;;;;;;;;;;;20.51;72.92;100647.08;460096;112;922639;-65
2021/08/16 01:43:41;;;;;;;;;;;;;;;20.51;72.90;100657.36;460421;114;922646;-66
2021/08/16 01:44:45;;;;;;;;;;;;;;;20.49;72.88;100654.86;461431;113;922655;-65
2021/08/16 01:45:48;;;;;;;;;;;;;;;20.49;72.93;100654.03;460445;114;922706;-66
2021/08/16 01:46:53;;;;;;;;;;;;;;;20.49;72.90;100662.34;460490;111;922635;-65
2021/08/16 01:47:57;;;;;;;;;;;;;;;20.47;72.94;100657.06;460178;114;923654;-66
2021/08/16 01:49:01;;;;;;;;;;;;;;;20.46;72.89;100654.56;460913;112;921513;-65
2021/08/16 01:50:04;;;;;;;;;;;;;;;20.44;72.91;100656.80;460681;113;921592;-65
2021/08/16 01:51:08;;;;;;;;;;;;;;;20.39;72.91;100655.70;461010;113;921436;-65
2021/08/16 01:52:11;;;;;;;;;;;;;;;20.35;72.96;100649.04;460396;113;922687;-64
2021/08/16 01:53:15;;;;;;;;;;;;;;;20.33;73.02;100658.75;460853;114;922669;-66
2021/08/16 01:54:19;;;;;;;;;;;;;;;20.28;73.13;100653.19;459136;112;922631;-66
2021/08/16 01:55:22;;;;;;;;;;;;;;;20.24;73.24;100650.12;460288;113;921616;-66
2021/08/16 01:56:26;;;;;;;;;;;;;;;20.21;73.33;100642.38;460605;113;921534;-66
2021/08/16 01:57:29;;;;;;;;;;;;;;;20.19;73.42;100654.83;460637;113;921509;-65
2021/08/16 01:58:32;;;;;;;;;;;;;;;20.17;73.51;100655.13;459897;112;921550;-66
2021/08/16 01:59:36;;;;;;;;;;;;;;;20.14;73.63;100650.13;461788;113;921430;-66
2021/08/16 02:00:39;;;;;;;;;;;;;;;20.12;73.73;100655.13;460394;114;921523;-65
2021/08/16 02:01:42;;;;;;;;;;;;;;;20.11;73.75;100656.23;460660;114;921821;-66
2021/08/16 02:02:46;;;;;;;;;;;;;;;20.08;73.82;100653.99;449471;116;921393;-64
2021/08/16 02:03:49;;;;;;;;;;;;;;;20.08;73.97;100658.69;460929;113;921542;-66
2021/08/16 02:04:53;;;;;;;;;;;;;;;20.07;74.05;100655.09;460490;112;921427;-67
2021/08/16 02:05:56;;;;;;;;;;;;;;;20.07;74.06;100657.86;460699;114;921383;-64
2021/08/16 02:06:59;;;;;;;;;;;;;;;20.07;74.08;100657.86;460724;112;921528;-65
2021/08/16 02:08:02;;;;;;;;;;;;;;;20.09;74.02;100663.96;461277;113;921500;-65
2021/08/16 02:09:05;;;;;;;;;;;;;;;20.10;74.01;100657.33;459514;113;921821;-64
2021/08/16 02:10:09;;;;;;;;;;;;;;;20.12;73.96;100668.97;461025;113;921539;-65
2021/08/16 02:11:12;;;;;;;;;;;;;;;20.12;73.89;100666.20;460839;113;921354;-65
2021/08/16 02:12:15;;;;;;;;;;;;;;;20.13;73.87;100667.83;460741;113;922643;-64
2021/08/16 02:13:19;;;;;;;;;;;;;;;20.14;73.85;100671.44;460638;113;923183;-65
2021/08/16 02:14:22;;;;;;;;;;;;;;;20.14;73.79;100672.27;460457;113;922643;-66
2021/08/16 02:15:26;;;;;;;;;;;;;;;20.16;73.72;100669.23;460233;112;922708;-65
2021/08/16 02:16:30;;;;;;;;;;;;;;;20.16;73.68;100675.61;460747;113;923419;-66
2021/08/16 02:17:33;;;;;;;;;;;;;;;20.17;73.59;100680.04;460615;112;922634;-66
2021/08/16 02:18:37;;;;;;;;;;;;;;;20.18;73.59;100678.11;460425;114;923152;-66
2021/08/16 02:19:42;;;;;;;;;;;;;;;20.20;73.50;100673.10;460626;113;923539;-64
2021/08/16 02:20:46;;;;;;;;;;;;;;;20.20;73.46;100679.48;460269;113;922641;-65
2021/08/16 02:21:50;;;;;;;;;;;;;;;20.20;73.35;100676.70;460745;113;922647;-65
2021/08/16 02:22:53;;;;;;;;;;;;;;;20.19;73.30;100677.80;459898;114;922635;-64
2021/08/16 02:23:57;;;;;;;;;;;;;;;20.16;73.30;100681.14;459986;113;924531;-66
2021/08/16 02:25:00;;;;;;;;;;;;;;;20.15;73.26;100675.88;460293;113;923530;-65
2021/08/16 02:26:04;;;;;;;;;;;;;;;20.12;73.30;100677.27;460572;113;922587;-67
2021/08/16 02:27:08;;;;;;;;;;;;;;;20.09;73.33;100677.80;461170;114;923161;-66
2021/08/16 02:28:15;;;;;;;;;;;;;;;20.07;73.40;100679.20;460876;114;924342;-67
2021/08/16 02:29:16;;;;;;;;;;;;;;;20.04;73.51;100677.80;460349;113;922627;-66
2021/08/16 02:30:20;;;;;;;;;;;;;;;20.04;73.61;100676.97;460766;113;922582;-64
2021/08/16 02:31:24;;;;;;;;;;;;;;;20.03;73.61;100683.60;460973;114;922536;-66
2021/08/16 02:32:28;;;;;;;;;;;;;;;20.02;73.58;100684.70;460098;113;922865;-65
2021/08/16 02:33:32;;;;;;;;;;;;;;;19.99;73.65;100677.80;461430;113;923093;-66
2021/08/16 02:34:35;;;;;;;;;;;;;;;19.98;73.66;100679.73;459891;112;923123;-66
2021/08/16 02:35:43;;;;;;;;;;;;;;;19.96;73.68;100681.93;461584;112;922677;-64
2021/08/16 02:36:46;;;;;;;;;;;;;;;19.96;73.67;100679.16;463654;113;922652;-64
2021/08/16 02:37:50;;;;;;;;;;;;;;;19.96;73.69;100678.33;452760;115;922668;-64
2021/08/16 02:38:54;;;;;;;;;;;;;;;19.95;73.67;100683.06;451708;116;922626;-65
2021/08/16 02:39:58;;;;;;;;;;;;;;;19.94;73.62;100675.02;461927;113;922584;-66
2021/08/16 02:41:01;;;;;;;;;;;;;;;19.93;73.65;100676.95;463322;113;922655;-66
2021/08/16 02:42:05;;;;;;;;;;;;;;;19.93;73.72;100687.19;463387;113;921471;-66
2021/08/16 02:43:09;;;;;;;;;;;;;;;19.91;73.68;100681.09;463522;113;923138;-65
2021/08/16 02:44:12;;;;;;;;;;;;;;;19.90;73.71;100682.22;460617;113;922737;-66
2021/08/16 02:45:15;;;;;;;;;;;;;;;19.89;73.74;100680.55;463200;111;922680;-64
2021/08/16 02:46:19;;;;;;;;;;;;;;;19.89;73.81;100680.55;463309;113;922696;-64
2021/08/16 02:47:23;;;;;;;;;;;;;;;19.88;73.80;100689.95;463270;113;922621;-65
2021/08/16 02:48:27;;;;;;;;;;;;;;;19.89;73.78;100684.16;463283;113;922602;-63
2021/08/16 02:49:30;;;;;;;;;;;;;;;19.88;73.81;100679.72;463612;113;922714;-64
2021/08/16 02:50:34;;;;;;;;;;;;;;;19.88;73.87;100679.72;462622;113;923047;-65
2021/08/16 02:51:37;;;;;;;;;;;;;;;19.88;73.85;100682.48;463598;113;921417;-66
2021/08/16 02:52:41;;;;;;;;;;;;;;;19.89;73.84;100680.55;462882;113;921401;-66
2021/08/16 02:53:44;;;;;;;;;;;;;;;19.88;73.85;100676.95;462875;113;921471;-66
2021/08/16 02:54:47;;;;;;;;;;;;;;;19.89;73.83;100681.39;463451;113;921776;-65
2021/08/16 02:55:50;;;;;;;;;;;;;;;19.88;73.72;100689.95;463887;113;921498;-65
2021/08/16 02:56:54;;;;;;;;;;;;;;;19.86;73.67;100690.22;463704;113;921496;-65
2021/08/16 02:57:57;;;;;;;;;;;;;;;19.85;73.64;100683.02;463609;113;921482;-65
2021/08/16 02:59:00;;;;;;;;;;;;;;;19.83;73.77;100695.48;462722;113;921625;-65
2021/08/16 03:00:04;;;;;;;;;;;;;;;19.82;73.80;100694.64;463546;113;921432;-65
2021/08/16 03:01:07;;;;;;;;;;;;;;;19.82;73.75;100696.58;461878;113;921524;-65
2021/08/16 03:02:11;;;;;;;;;;;;;;;19.81;73.73;100692.14;462212;113;921423;-66
2021/08/16 03:03:14;;;;;;;;;;;;;;;19.79;73.87;100686.07;463704;113;921439;-66
2021/08/16 03:04:17;;;;;;;;;;;;;;;19.79;73.96;100691.61;463815;113;921436;-63
2021/08/16 03:05:20;;;;;;;;;;;;;;;19.79;73.96;100692.41;463930;113;921420;-66
2021/08/16 03:06:23;;;;;;;;;;;;;;;19.80;73.95;100696.84;463334;113;921449;-65
2021/08/16 03:07:26;;;;;;;;;;;;;;;19.79;73.98;100697.94;463698;113;921488;-66
2021/08/16 03:08:31;;;;;;;;;;;;;;;19.80;74.01;100698.77;453540;115;921392;-65
2021/08/16 03:09:35;;;;;;;;;;;;;;;19.80;73.82;100693.23;443273;117;922705;-66
2021/08/16 03:10:42;;;;;;;;;;;;;;;19.78;73.72;100709.30;463442;113;921382;-65
2021/08/16 03:11:45;;;;;;;;;;;;;;;19.78;73.65;100704.61;463467;113;922474;-65
2021/08/16 03:12:48;;;;;;;;;;;;;;;19.77;73.67;100707.64;463270;113;921497;-66
2021/08/16 03:13:52;;;;;;;;;;;;;;;19.76;73.77;100706.80;463167;113;921560;-65
2021/08/16 03:14:55;;;;;;;;;;;;;;;19.77;73.82;100702.10;464626;111;921480;-65
2021/08/16 03:15:59;;;;;;;;;;;;;;;19.79;73.85;100702.67;463493;113;921414;-65
2021/08/16 03:17:03;;;;;;;;;;;;;;;19.82;73.80;100696.58;463801;113;921570;-65
2021/08/16 03:18:07;;;;;;;;;;;;;;;19.84;73.71;100695.22;462572;113;922687;-65
2021/08/16 03:19:10;;;;;;;;;;;;;;;19.87;73.60;100693.82;462119;113;922676;-65
2021/08/16 03:20:15;;;;;;;;;;;;;;;19.90;73.48;100698.83;462737;111;922627;-65
2021/08/16 03:21:18;;;;;;;;;;;;;;;19.90;73.30;100696.06;463132;113;922660;-66
2021/08/16 03:22:22;;;;;;;;;;;;;;;19.90;73.23;100690.52;461426;112;922692;-64
2021/08/16 03:23:27;;;;;;;;;;;;;;;19.90;73.20;100693.30;461940;113;921469;-65
2021/08/16 03:24:32;;;;;;;;;;;;;;;19.89;73.17;100699.92;462937;113;922724;-65
2021/08/16 03:25:36;;;;;;;;;;;;;;;19.88;73.23;100701.86;464026;113;923149;-65
2021/08/16 03:26:40;;;;;;;;;;;;;;;19.89;73.29;100699.92;463576;113;922659;-65
2021/08/16 03:27:43;;;;;;;;;;;;;;;19.89;73.27;100692.45;463235;113;923124;-64
2021/08/16 03:28:48;;;;;;;;;;;;;;;19.90;73.20;100696.06;463460;113;922658;-66
2021/08/16 03:29:51;;;;;;;;;;;;;;;19.89;73.10;100697.99;463499;113;923117;-64
2021/08/16 03:30:55;;;;;;;;;;;;;;;19.89;73.10;100699.92;463171;113;923041;-65
2021/08/16 03:32:00;;;;;;;;;;;;;;;19.88;73.11;100701.02;463071;113;923128;-66
2021/08/16 03:33:04;;;;;;;;;;;;;;;19.87;73.10;100694.66;463859;113;923082;-66
2021/08/16 03:34:07;;;;;;;;;;;;;;;19.86;73.03;100703.22;463769;113;922694;-65
2021/08/16 03:35:10;;;;;;;;;;;;;;;19.85;73.04;100701.55;463380;113;922654;-63
2021/08/16 03:36:14;;;;;;;;;;;;;;;19.84;73.09;100702.68;462331;113;925074;-66
2021/08/16 03:37:17;;;;;;;;;;;;;;;19.84;73.10;100709.05;459706;113;921466;-65
2021/08/16 03:38:21;;;;;;;;;;;;;;;19.84;73.18;100710.98;459713;113;923366;-64
2021/08/16 03:39:25;;;;;;;;;;;;;;;19.85;73.22;100709.85;460721;112;922732;-64
2021/08/16 03:40:28;;;;;;;;;;;;;;;19.87;73.25;100716.80;460923;113;921682;-66
2021/08/16 03:41:31;;;;;;;;;;;;;;;19.88;73.32;100710.16;460108;112;923129;-65
2021/08/16 03:42:35;;;;;;;;;;;;;;;19.91;73.38;100708.77;460137;114;923276;-65
2021/08/16 03:43:39;;;;;;;;;;;;;;;19.94;73.29;100716.53;461174;113;921538;-65
2021/08/16 03:44:42;;;;;;;;;;;;;;;19.97;73.30;100714.05;459671;113;921478;-67
2021/08/16 03:45:46;;;;;;;;;;;;;;;20.01;73.18;100714.34;460910;114;921376;-65
2021/08/16 03:46:50;;;;;;;;;;;;;;;20.04;73.06;100711.02;460513;114;921432;-66
2021/08/16 03:47:53;;;;;;;;;;;;;;;20.06;72.99;100714.35;461115;113;921500;-64
2021/08/16 03:48:56;;;;;;;;;;;;;;;20.09;72.95;100718.49;460646;113;921431;-65
2021/08/16 03:50:00;;;;;;;;;;;;;;;20.11;72.90;100719.06;460043;112;921400;-66
2021/08/16 03:51:03;;;;;;;;;;;;;;;20.13;72.87;100708.52;460524;114;921598;-66
2021/08/16 03:52:06;;;;;;;;;;;;;;;20.16;72.82;100714.36;459550;113;921484;-66
2021/08/16 03:53:09;;;;;;;;;;;;;;;20.20;72.77;100722.94;460184;113;921468;-66
2021/08/16 03:54:13;;;;;;;;;;;;;;;20.22;72.73;100720.73;460592;114;921439;-64
2021/08/16 03:55:16;;;;;;;;;;;;;;;20.26;72.61;100721.84;460539;113;921433;-66
2021/08/16 03:56:19;;;;;;;;;;;;;;;20.29;72.62;100727.65;462241;112;921359;-65
2021/08/16 03:57:22;;;;;;;;;;;;;;;20.32;72.62;100718.84;461335;113;921450;-66
2021/08/16 03:58:25;;;;;;;;;;;;;;;20.36;72.60;100722.71;461763;113;923154;-65
2021/08/16 03:59:29;;;;;;;;;;;;;;;20.39;72.62;100730.48;460240;113;922758;-64
2021/08/16 04:00:33;;;;;;;;;;;;;;;20.43;72.62;100727.15;460731;113;921992;-66
2021/08/16 04:01:36;;;;;;;;;;;;;;;20.46;72.64;100732.13;460909;113;921542;-65
2021/08/16 04:02:41;;;;;;;;;;;;;;;20.50;72.72;100739.63;461715;112;921397;-66
2021/08/16 04:03:45;;;;;;;;;;;;;;;20.53;72.70;100733.52;460414;113;923120;-65
2021/08/16 04:04:49;;;;;;;;;;;;;;;20.56;72.66;100743.23;460039;113;921824;-66
2021/08/16 04:05:52;;;;;;;;;;;;;;;20.59;72.68;100739.89;459732;113;922686;-66
2021/08/16 04:06:56;;;;;;;;;;;;;;;20.60;72.66;100739.63;459758;112;923009;-66
2021/08/16 04:08:00;;;;;;;;;;;;;;;20.63;72.62;100750.14;459585;114;923242;-66
2021/08/16 04:09:03;;;;;;;;;;;;;;;20.65;72.53;100742.39;460070;113;922657;-64
2021/08/16 04:10:07;;;;;;;;;;;;;;;20.67;72.41;100744.89;460815;114;923626;-65
2021/08/16 04:11:11;;;;;;;;;;;;;;;20.69;72.33;100748.20;460862;112;922887;-66
2021/08/16 04:12:16;;;;;;;;;;;;;;;20.70;72.28;100750.70;461667;113;924587;-65
2021/08/16 04:13:20;;;;;;;;;;;;;;;20.72;72.22;100745.72;448682;116;922667;-67
2021/08/16 04:14:23;;;;;;;;;;;;;;;20.73;72.13;100755.67;461025;113;922655;-66
2021/08/16 04:15:27;;;;;;;;;;;;;;;20.73;72.12;100752.09;460929;113;923444;-66
2021/08/16 04:16:31;;;;;;;;;;;;;;;20.73;72.16;100752.09;460183;113;923132;-64
2021/08/16 04:17:34;;;;;;;;;;;;;;;20.74;72.14;100759.27;461861;113;922657;-65
2021/08/16 04:18:38;;;;;;;;;;;;;;;20.75;72.06;100749.86;460376;113;922754;-66
2021/08/16 04:19:41;;;;;;;;;;;;;;;20.76;72.02;100759.84;460491;114;923440;-65
2021/08/16 04:20:45;;;;;;;;;;;;;;;20.76;71.98;100759.84;460556;113;923310;-64
2021/08/16 04:21:49;;;;;;;;;;;;;;;20.77;71.92;100758.73;459296;113;921831;-65
2021/08/16 04:22:52;;;;;;;;;;;;;;;20.77;71.91;100756.80;460758;113;922707;-66
2021/08/16 04:23:58;;;;;;;;;;;;;;;20.79;71.85;100759.27;460653;113;923060;-64
2021/08/16 04:25:01;;;;;;;;;;;;;;;20.79;71.78;100757.34;461112;112;922667;-65
2021/08/16 04:26:05;;;;;;;;;;;;;;;20.80;71.81;100759.00;460099;113;924435;-65
2021/08/16 04:27:09;;;;;;;;;;;;;;;20.81;71.73;100760.67;461181;112;923616;-66
2021/08/16 04:28:13;;;;;;;;;;;;;;;20.82;71.62;100753.19;460466;114;923136;-64
2021/08/16 04:29:17;;;;;;;;;;;;;;;20.83;71.58;100754.86;460168;114;923135;-66
2021/08/16 04:30:20;;;;;;;;;;;;;;;20.84;71.60;100756.49;460369;111;922667;-66
2021/08/16 04:31:23;;;;;;;;;;;;;;;20.85;71.62;100760.94;460589;113;922679;-64
2021/08/16 04:32:27;;;;;;;;;;;;;;;20.86;71.68;100757.06;460117;113;923142;-66
2021/08/16 04:33:30;;;;;;;;;;;;;;;20.87;71.62;100766.20;460825;113;923139;-66
2021/08/16 04:34:34;;;;;;;;;;;;;;;20.88;71.55;100756.79;460140;113;922657;-68
2021/08/16 04:35:38;;;;;;;;;;;;;;;20.89;71.60;100756.52;460724;113;923104;-67
2021/08/16 04:36:42;;;;;;;;;;;;;;;20.91;71.48;100751.51;459972;114;921559;-65
2021/08/16 04:37:45;;;;;;;;;;;;;;;20.92;71.34;100755.95;460455;113;921561;-66
2021/08/16 04:38:48;;;;;;;;;;;;;;;20.95;71.25;100757.34;460796;113;921419;-66
2021/08/16 04:39:51;;;;;;;;;;;;;;;20.97;71.20;100761.48;460930;113;921874;-65
2021/08/16 04:40:55;;;;;;;;;;;;;;;21.00;71.18;100757.34;460454;113;921554;-64
2021/08/16 04:41:58;;;;;;;;;;;;;;;21.01;71.13;100751.48;460460;113;921488;-65
2021/08/16 04:43:01;;;;;;;;;;;;;;;21.03;71.07;100753.98;460814;113;921531;-64
2021/08/16 04:44:04;;;;;;;;;;;;;;;21.04;71.07;100750.11;460550;114;921593;-64
2021/08/16 04:45:08;;;;;;;;;;;;;;;21.05;70.95;100749.84;460514;113;922668;-65
2021/08/16 04:46:12;;;;;;;;;;;;;;;21.08;70.81;100749.27;460006;112;921369;-65
2021/08/16 04:47:16;;;;;;;;;;;;;;;21.09;70.71;100748.16;461512;113;921469;-65
2021/08/16 04:48:19;;;;;;;;;;;;;;;21.12;70.72;100746.75;460055;114;921436;-66
2021/08/16 04:49:22;;;;;;;;;;;;;;;21.14;70.66;100745.41;460283;114;921405;-67
2021/08/16 04:50:25;;;;;;;;;;;;;;;21.17;70.52;100753.15;460201;112;921395;-66
2021/08/16 04:51:28;;;;;;;;;;;;;;;21.19;70.45;100744.55;459590;114;921901;-66
2021/08/16 04:52:33;;;;;;;;;;;;;;;21.21;70.34;100751.50;460754;113;921446;-65
2021/08/16 04:53:37;;;;;;;;;;;;;;;21.25;70.30;100750.92;461716;113;922665;-65
2021/08/16 04:54:40;;;;;;;;;;;;;;;21.27;70.25;100748.70;461331;112;922676;-66
2021/08/16 04:55:44;;;;;;;;;;;;;;;21.30;70.19;100746.19;461803;112;923045;-64
2021/08/16 04:56:49;;;;;;;;;;;;;;;21.33;70.17;100744.81;461049;113;922680;-65
2021/08/16 04:57:52;;;;;;;;;;;;;;;21.35;70.19;100748.95;460773;112;922657;-64
2021/08/16 04:58:57;;;;;;;;;;;;;;;21.37;70.16;100740.36;459364;113;923018;-65
2021/08/16 05:00:02;;;;;;;;;;;;;;;21.39;70.06;100738.94;460268;114;922665;-66
2021/08/16 05:01:05;;;;;;;;;;;;;;;21.41;69.93;100742.27;460587;111;923223;-66
2021/08/16 05:02:09;;;;;;;;;;;;;;;21.42;69.79;100748.66;460322;113;922633;-64
2021/08/16 05:03:13;;;;;;;;;;;;;;;21.43;69.62;100742.84;459615;113;922676;-65
2021/08/16 05:04:17;;;;;;;;;;;;;;;21.45;69.58;100745.30;460170;112;921466;-66
2021/08/16 05:05:24;;;;;;;;;;;;;;;21.46;69.52;100736.70;460025;114;922629;-66
2021/08/16 05:06:29;;;;;;;;;;;;;;;21.47;69.51;100740.31;459774;113;923527;-65
2021/08/16 05:07:33;;;;;;;;;;;;;;;21.49;69.43;100746.42;460786;113;922711;-66
2021/08/16 05:08:37;;;;;;;;;;;;;;;21.51;69.42;100744.17;459616;113;922624;-65
2021/08/16 05:09:40;;;;;;;;;;;;;;;21.53;69.45;100744.73;460152;114;922649;-64
2021/08/16 05:10:45;;;;;;;;;;;;;;;21.54;69.46;100736.13;460296;113;922722;-66
2021/08/16 05:11:49;;;;;;;;;;;;;;;21.55;69.43;100734.19;460343;113;922697;-66
2021/08/16 05:12:54;;;;;;;;;;;;;;;21.56;69.22;100739.44;460048;114;922642;-64
2021/08/16 05:13:57;;;;;;;;;;;;;;;21.58;69.21;100736.38;459974;114;922668;-63
2021/08/16 05:15:01;;;;;;;;;;;;;;;21.58;69.23;100734.45;461459;113;922641;-65
2021/08/16 05:16:05;;;;;;;;;;;;;;;21.61;69.29;100733.86;460506;113;922633;-65
2021/08/16 05:17:08;;;;;;;;;;;;;;;21.64;69.25;100738.86;459879;113;923108;-64
2021/08/16 05:18:12;;;;;;;;;;;;;;;21.66;69.12;100733.03;460443;112;922656;-67
2021/08/16 05:19:16;;;;;;;;;;;;;;;21.68;69.11;100741.05;460117;113;922668;-65
2021/08/16 05:20:20;;;;;;;;;;;;;;;21.69;69.10;100738.00;450800;116;922692;-66
2021/08/16 05:21:24;;;;;;;;;;;;;;;21.72;69.14;100733.84;459524;113;922659;-66
2021/08/16 05:22:27;;;;;;;;;;;;;;;21.75;68.92;100738.81;460784;112;923044;-65
2021/08/16 05:23:31;;;;;;;;;;;;;;;21.75;68.44;100739.64;460439;112;921570;-64